Terminal Aerodrome Forecast
Issued by NWS Albuquerque, NM

Home | Current Version | Previous Version | Text Only | Print | Product List | Glossary On
Versions: 1 2 3 4 5 6 7 8 9 10 11 12 13 14 15 16 17
000
FTUS45 KABQ 201700
TAFABQ
TAF
KABQ 201729Z 2018/2118 24010KT P6SM FEW040 FEW120
      TEMPO 2019/2020 24010G20KT
     FM202000 30015G25KT P6SM VCSH BKN100
     FM210000 30015KT P6SM BKN100
     FM210200 36005KT P6SM BKN100=

USA.gov is the U.S. government's official web portal to all federal, state and local government web resources and services.